Time;durP1;ratioP1;P1;durP2;ratioP2;P2;SDS_P1;SDS_P2;PMS_P1;PMS_P2;Temp;Humidity;BMP_temperature;BMP_pressure;BME280_temperature;BME280_humidity;BME280_pressure;Samples;Min_cycle;Max_cycle;Signal;HPM_P1;HPM_P2
2021/09/24 00:00:52;;;;;;;17.63;2.95;;;15.50;71.50;;;;;;4903869;29;20183;-68
2021/09/24 00:03:21;;;;;;;20.48;3.47;;;15.40;71.30;;;;;;4892682;29;20028;-68
2021/09/24 00:05:46;;;;;;;24.48;3.70;;;15.40;70.80;;;;;;4900275;29;20517;-68
2021/09/24 00:08:12;;;;;;;16.45;2.80;;;15.30;71.40;;;;;;4899282;29;20139;-68
2021/09/24 00:10:38;;;;;;;19.33;2.90;;;15.30;72.20;;;;;;4902680;29;20148;-68
2021/09/24 00:13:04;;;;;;;15.93;3.00;;;15.20;72.20;;;;;;4900228;29;20055;-68
2021/09/24 00:15:31;;;;;;;28.83;3.78;;;15.20;72.00;;;;;;4884245;29;20674;-69
2021/09/24 00:17:58;;;;;;;14.43;2.75;;;15.10;72.10;;;;;;4884722;29;20068;-68
2021/09/24 00:20:24;;;;;;;15.50;3.75;;;15.10;72.60;;;;;;4884782;29;20039;-69
2021/09/24 00:22:49;;;;;;;16.13;3.13;;;15.10;72.70;;;;;;4884176;29;20036;-68
2021/09/24 00:25:15;;;;;;;22.02;3.53;;;15.00;72.90;;;;;;4885319;29;20032;-68
2021/09/24 00:27:41;;;;;;;28.92;3.67;;;15.00;73.80;;;;;;4886625;29;20476;-68
2021/09/24 00:30:10;;;;;;;16.00;3.03;;;15.00;74.00;;;;;;4901716;29;20040;-68
2021/09/24 00:32:36;;;;;;;21.05;3.63;;;15.00;73.80;;;;;;4889811;29;20043;-68
2021/09/24 00:35:03;;;;;;;23.27;3.35;;;15.00;73.40;;;;;;4883904;29;20096;-68
2021/09/24 00:37:28;;;;;;;20.83;3.20;;;15.00;73.20;;;;;;4883960;29;20037;-68
2021/09/24 00:39:54;;;;;;;24.23;3.83;;;14.90;73.20;;;;;;4883704;29;20029;-68
2021/09/24 00:42:20;;;;;;;18.17;4.00;;;14.80;73.40;;;;;;4884754;29;20083;-69
2021/09/24 00:44:48;;;;;;;16.02;3.20;;;14.80;74.70;;;;;;4884376;29;20561;-68
2021/09/24 00:47:15;;;;;;;22.35;3.35;;;14.80;74.70;;;;;;4890010;29;20036;-68
2021/09/24 00:49:41;;;;;;;16.15;3.22;;;14.80;73.40;;;;;;4903236;29;20042;-68
2021/09/24 00:52:07;;;;;;;22.05;4.03;;;14.80;73.60;;;;;;4892815;29;20580;-68
2021/09/24 00:54:33;;;;;;;26.50;3.75;;;14.70;74.40;;;;;;4883228;29;20044;-68
2021/09/24 00:57:00;;;;;;;22.08;3.45;;;14.70;73.60;;;;;;4895261;29;20124;-68
2021/09/24 00:59:27;;;;;;;17.70;2.65;;;14.70;73.80;;;;;;4885579;29;20041;-68
2021/09/24 01:01:54;;;;;;;15.90;3.30;;;14.70;74.70;;;;;;4903505;29;20036;-68
2021/09/24 01:04:20;;;;;;;20.95;3.28;;;14.80;75.40;;;;;;4902789;29;20036;-68
2021/09/24 01:06:47;;;;;;;29.38;4.55;;;14.70;75.00;;;;;;4902889;29;20035;-69
2021/09/24 01:09:12;;;;;;;22.30;3.67;;;14.70;74.90;;;;;;4900640;29;20040;-68
2021/09/24 01:11:38;;;;;;;25.80;3.70;;;14.60;75.10;;;;;;4884671;29;20792;-69
2021/09/24 01:14:05;;;;;;;20.27;3.13;;;14.60;75.10;;;;;;4891390;29;20046;-65
2021/09/24 01:16:31;;;;;;;24.52;3.55;;;14.60;75.20;;;;;;4884410;29;20044;-64
2021/09/24 01:18:57;;;;;;;20.15;3.03;;;14.70;75.10;;;;;;4888626;29;20562;-64
2021/09/24 01:21:24;;;;;;;16.25;2.95;;;14.70;75.40;;;;;;4902294;29;20036;-64
2021/09/24 01:23:50;;;;;;;30.30;4.75;;;14.60;75.90;;;;;;4903897;29;20079;-65
2021/09/24 01:26:15;;;;;;;23.02;3.72;;;14.60;75.70;;;;;;4903522;29;20032;-65
2021/09/24 01:28:45;;;;;;;19.90;3.45;;;14.60;75.70;;;;;;4902527;29;20044;-64
2021/09/24 01:31:12;;;;;;;27.48;3.78;;;14.60;75.90;;;;;;4903627;29;20126;-65
2021/09/24 01:33:44;;;;;;;15.00;3.67;;;14.60;75.60;;;;;;4893624;29;20033;-64
2021/09/24 01:36:10;;;;;;;27.33;3.70;;;14.60;75.50;;;;;;4882949;29;20033;-65
2021/09/24 01:38:36;;;;;;;27.13;3.70;;;14.60;75.50;;;;;;4883824;29;20450;-64
2021/09/24 01:41:02;;;;;;;28.75;4.18;;;14.60;75.50;;;;;;4884419;29;20048;-65
2021/09/24 01:43:27;;;;;;;23.20;3.15;;;14.60;75.00;;;;;;4883926;29;20032;-65
2021/09/24 01:45:53;;;;;;;20.15;3.13;;;14.50;75.90;;;;;;4884347;29;20544;-65
2021/09/24 01:48:19;;;;;;;20.65;4.10;;;14.50;75.70;;;;;;4891786;29;20098;-64
2021/09/24 01:50:44;;;;;;;20.65;3.95;;;14.60;76.10;;;;;;4883217;29;20036;-65
2021/09/24 01:53:10;;;;;;;27.10;4.22;;;14.50;75.60;;;;;;4892273;29;20135;-64
2021/09/24 01:55:36;;;;;;;24.60;3.67;;;14.60;75.70;;;;;;4893941;29;20040;-64
2021/09/24 01:58:02;;;;;;;24.35;3.13;;;14.60;75.70;;;;;;4897638;29;20032;-65
2021/09/24 02:00:27;;;;;;;22.88;3.38;;;14.60;76.10;;;;;;4892778;29;20127;-65
2021/09/24 02:02:53;;;;;;;20.58;3.53;;;14.60;75.80;;;;;;4884221;29;20127;-65
2021/09/24 02:05:19;;;;;;;28.33;4.32;;;14.60;76.10;;;;;;4887188;29;20056;-65
2021/09/24 02:07:45;;;;;;;20.98;3.03;;;14.70;75.40;;;;;;4883703;29;20091;-65
2021/09/24 02:10:11;;;;;;;14.20;3.03;;;14.70;75.20;;;;;;4884025;29;20158;-65
2021/09/24 02:12:37;;;;;;;24.33;4.20;;;14.70;75.40;;;;;;4884083;29;20032;-65
2021/09/24 02:15:03;;;;;;;21.88;3.28;;;14.80;75.40;;;;;;4890132;29;20037;-65
2021/09/24 02:17:29;;;;;;;19.48;3.85;;;14.80;75.20;;;;;;4889571;29;20047;-65
2021/09/24 02:19:55;;;;;;;22.55;3.47;;;14.90;74.90;;;;;;4883276;29;20041;-65
2021/09/24 02:22:20;;;;;;;20.83;4.15;;;14.90;74.90;;;;;;4882591;29;20052;-65
2021/09/24 02:24:46;;;;;;;17.60;3.55;;;15.00;74.70;;;;;;4885775;29;20025;-64
2021/09/24 02:27:12;;;;;;;25.92;3.55;;;15.00;74.30;;;;;;4902303;29;20047;-65
2021/09/24 02:29:37;;;;;;;21.33;3.13;;;15.00;74.90;;;;;;4902707;29;20040;-65
2021/09/24 02:32:04;;;;;;;16.38;3.60;;;15.10;75.10;;;;;;4897380;29;20048;-65
2021/09/24 02:34:30;;;;;;;22.00;3.70;;;15.00;74.90;;;;;;4884069;29;20044;-65
2021/09/24 02:36:56;;;;;;;29.90;4.05;;;15.00;75.40;;;;;;4899059;29;20082;-65
2021/09/24 02:39:22;;;;;;;20.70;4.10;;;14.90;75.40;;;;;;4905859;29;20072;-65
2021/09/24 02:41:47;;;;;;;22.60;3.63;;;14.90;75.60;;;;;;4905646;29;20549;-65
2021/09/24 02:44:14;;;;;;;24.30;3.65;;;14.80;75.60;;;;;;4901819;29;20127;-65
2021/09/24 02:46:39;;;;;;;20.58;4.22;;;14.70;76.10;;;;;;4893943;29;20468;-65
2021/09/24 02:49:05;;;;;;;21.08;3.78;;;14.80;76.10;;;;;;4885906;29;20044;-65
2021/09/24 02:51:31;;;;;;;26.52;4.60;;;14.80;75.80;;;;;;4900633;29;20052;-65
2021/09/24 02:53:57;;;;;;;31.92;4.35;;;14.70;76.10;;;;;;4887465;29;20593;-65
2021/09/24 02:56:23;;;;;;;27.55;4.00;;;14.70;76.20;;;;;;4886105;29;20501;-64
2021/09/24 02:58:48;;;;;;;25.35;4.10;;;14.70;76.80;;;;;;4885969;29;20131;-66
2021/09/24 03:01:14;;;;;;;21.10;3.50;;;14.70;76.50;;;;;;4885088;29;20117;-64
2021/09/24 03:03:40;;;;;;;25.38;3.90;;;14.70;76.60;;;;;;4886351;29;20410;-65
2021/09/24 03:06:05;;;;;;;27.58;3.60;;;14.70;76.70;;;;;;4885591;29;20047;-64
2021/09/24 03:08:31;;;;;;;18.58;3.47;;;14.80;76.20;;;;;;4885885;29;20048;-65
2021/09/24 03:10:57;;;;;;;20.40;4.47;;;14.80;75.80;;;;;;4886021;29;20839;-65
2021/09/24 03:13:23;;;;;;;26.63;4.07;;;14.80;75.90;;;;;;4885984;29;20037;-65
2021/09/24 03:15:49;;;;;;;16.77;3.65;;;14.70;75.90;;;;;;4907999;29;20048;-65
2021/09/24 03:18:15;;;;;;;19.63;3.60;;;14.70;76.20;;;;;;4902249;29;20566;-65
2021/09/24 03:20:40;;;;;;;28.35;4.10;;;14.80;76.70;;;;;;4894218;29;20032;-65
2021/09/24 03:23:06;;;;;;;28.08;3.83;;;14.70;76.40;;;;;;4896736;29;20524;-65
2021/09/24 03:25:32;;;;;;;17.20;3.53;;;14.70;76.20;;;;;;4887136;29;20849;-64
2021/09/24 03:27:58;;;;;;;23.15;4.15;;;14.60;76.60;;;;;;4891587;29;20043;-65
2021/09/24 03:30:24;;;;;;;24.17;3.35;;;14.60;76.60;;;;;;4892119;29;20037;-65
2021/09/24 03:32:50;;;;;;;21.77;3.58;;;14.60;76.70;;;;;;4905318;29;20036;-65
2021/09/24 03:35:16;;;;;;;22.27;3.70;;;14.60;77.30;;;;;;4904191;29;20400;-64
2021/09/24 03:37:42;;;;;;;17.40;3.38;;;14.60;77.00;;;;;;4886888;29;20045;-65
2021/09/24 03:40:09;;;;;;;24.42;3.88;;;14.60;77.20;;;;;;4892292;29;20059;-65
2021/09/24 03:42:34;;;;;;;22.73;4.05;;;14.60;77.00;;;;;;4903233;29;20044;-65
2021/09/24 03:45:00;;;;;;;20.65;3.67;;;14.60;76.60;;;;;;4904176;29;20111;-64
2021/09/24 03:47:26;;;;;;;17.20;3.67;;;14.70;77.00;;;;;;4902211;29;20116;-64
2021/09/24 03:49:52;;;;;;;22.35;3.50;;;14.70;76.90;;;;;;4903589;29;20072;-65
2021/09/24 03:52:17;;;;;;;23.02;3.60;;;14.70;76.90;;;;;;4899048;29;20449;-69
2021/09/24 03:54:43;;;;;;;19.13;3.28;;;14.70;76.60;;;;;;4888588;29;20043;-68
2021/09/24 03:57:09;;;;;;;19.52;3.53;;;14.80;76.50;;;;;;4892521;29;20055;-68
2021/09/24 03:59:34;;;;;;;19.90;3.47;;;14.70;76.60;;;;;;4888659;29;20119;-68
2021/09/24 04:02:00;;;;;;;26.65;3.60;;;14.70;77.00;;;;;;4904152;29;20847;-68
2021/09/24 04:04:26;;;;;;;23.25;4.20;;;14.70;77.00;;;;;;4892715;29;20047;-69
2021/09/24 04:06:52;;;;;;;19.60;3.13;;;14.70;77.10;;;;;;4896922;29;20036;-68
2021/09/24 04:09:17;;;;;;;22.55;3.97;;;14.70;77.10;;;;;;4901788;29;20071;-68
2021/09/24 04:11:43;;;;;;;23.02;3.55;;;14.70;77.40;;;;;;4884423;29;20044;-69
2021/09/24 04:14:09;;;;;;;18.10;3.78;;;14.70;77.50;;;;;;4885746;29;20033;-68
2021/09/24 04:16:34;;;;;;;21.77;4.03;;;14.70;77.60;;;;;;4898849;29;20052;-69
2021/09/24 04:19:00;;;;;;;20.52;3.33;;;14.70;77.40;;;;;;4890215;29;20057;-69
2021/09/24 04:21:26;;;;;;;16.80;3.17;;;14.60;77.50;;;;;;4885070;29;20110;-68
2021/09/24 04:23:52;;;;;;;23.23;3.83;;;14.50;77.90;;;;;;4886829;29;20107;-68
2021/09/24 04:26:18;;;;;;;20.85;3.45;;;14.60;78.00;;;;;;4895042;29;20575;-64
2021/09/24 04:28:43;;;;;;;23.38;4.38;;;14.50;78.20;;;;;;4892102;29;20056;-65
2021/09/24 04:31:10;;;;;;;21.35;3.75;;;14.40;78.40;;;;;;4886627;29;20163;-66
2021/09/24 04:33:36;;;;;;;16.83;3.45;;;14.30;78.80;;;;;;4888643;29;20050;-65
2021/09/24 04:36:02;;;;;;;20.10;3.50;;;14.30;78.80;;;;;;4883439;29;20041;-65
2021/09/24 04:38:27;;;;;;;16.98;3.25;;;14.30;78.70;;;;;;4893425;29;20036;-65
2021/09/24 04:40:53;;;;;;;20.80;3.35;;;14.30;79.00;;;;;;4903041;29;20048;-65
2021/09/24 04:43:19;;;;;;;24.17;3.25;;;14.30;78.90;;;;;;4896463;29;20040;-65
2021/09/24 04:45:45;;;;;;;17.08;3.53;;;14.20;79.30;;;;;;4892702;29;20059;-65
2021/09/24 04:48:10;;;;;;;16.98;3.35;;;14.20;79.50;;;;;;4884295;29;20036;-65
2021/09/24 04:50:36;;;;;;;22.05;3.30;;;14.20;79.80;;;;;;4885370;29;20048;-65
2021/09/24 04:53:02;;;;;;;20.52;3.65;;;14.20;79.80;;;;;;4882876;29;20051;-65
2021/09/24 04:55:28;;;;;;;18.83;3.20;;;14.30;79.70;;;;;;4884655;29;20055;-65
2021/09/24 04:57:54;;;;;;;16.10;2.78;;;14.30;79.70;;;;;;4884035;29;20029;-65
2021/09/24 05:00:20;;;;;;;13.27;2.75;;;14.40;79.60;;;;;;4892047;29;20533;-65
2021/09/24 05:02:46;;;;;;;20.45;3.30;;;14.40;79.30;;;;;;4884277;29;20168;-65
2021/09/24 05:05:12;;;;;;;22.40;4.07;;;14.50;79.00;;;;;;4884595;29;20715;-65
2021/09/24 05:07:38;;;;;;;21.25;3.33;;;14.50;79.00;;;;;;4884634;29;20044;-65
2021/09/24 05:10:06;;;;;;;24.45;4.38;;;14.50;79.00;;;;;;4883504;29;20071;-65
2021/09/24 05:12:32;;;;;;;21.05;3.47;;;14.50;79.10;;;;;;4884234;29;20569;-65
2021/09/24 05:14:58;;;;;;;18.33;2.80;;;14.60;79.00;;;;;;4898618;29;20135;-65
2021/09/24 05:17:24;;;;;;;19.75;3.88;;;14.60;78.90;;;;;;4901909;29;20036;-65
2021/09/24 05:19:50;;;;;;;18.10;3.53;;;14.60;78.80;;;;;;4902948;29;20033;-65
2021/09/24 05:22:16;;;;;;;12.43;3.10;;;14.60;79.00;;;;;;4902416;29;20190;-65
2021/09/24 05:24:42;;;;;;;20.75;3.40;;;14.60;78.90;;;;;;4884561;29;20666;-65
2021/09/24 05:27:07;;;;;;;22.80;3.15;;;14.70;78.80;;;;;;4882995;29;20112;-65
2021/09/24 05:29:33;;;;;;;23.65;3.30;;;14.60;78.50;;;;;;4883813;29;20041;-65
2021/09/24 05:31:59;;;;;;;21.48;3.67;;;14.60;78.90;;;;;;4882258;29;20037;-65
2021/09/24 05:34:25;;;;;;;19.67;3.60;;;14.50;78.90;;;;;;4883770;29;20044;-65
2021/09/24 05:36:50;;;;;;;15.43;3.40;;;14.50;79.30;;;;;;4883829;29;20119;-67
2021/09/24 05:39:18;;;;;;;18.70;3.78;;;14.50;79.40;;;;;;4882964;29;20522;-65
2021/09/24 05:41:43;;;;;;;14.05;3.10;;;14.50;79.60;;;;;;4882228;29;20037;-64
2021/09/24 05:44:09;;;;;;;22.88;3.85;;;14.50;79.60;;;;;;4887452;29;20036;-64
2021/09/24 05:46:35;;;;;;;21.40;3.40;;;14.50;79.40;;;;;;4890373;29;20064;-64
2021/09/24 05:49:00;;;;;;;28.52;4.38;;;14.50;79.80;;;;;;4882975;29;20045;-64
2021/09/24 05:51:26;;;;;;;16.92;3.30;;;14.50;79.50;;;;;;4883664;29;20032;-64
2021/09/24 05:53:52;;;;;;;12.88;3.15;;;14.50;79.80;;;;;;4883269;29;20580;-64
2021/09/24 05:56:18;;;;;;;21.63;3.47;;;14.40;79.70;;;;;;4883402;29;20066;-64
2021/09/24 05:58:44;;;;;;;19.63;3.80;;;14.40;80.10;;;;;;4887295;23;20048;-66
2021/09/24 06:01:09;;;;;;;20.17;3.25;;;14.40;80.20;;;;;;4864571;29;20044;-66
2021/09/24 06:03:35;;;;;;;17.33;3.78;;;14.40;80.40;;;;;;4858807;29;20038;-67
2021/09/24 06:06:02;;;;;;;26.17;3.65;;;14.50;80.40;;;;;;4846333;29;20102;-66
2021/09/24 06:08:28;;;;;;;18.88;3.45;;;14.50;80.20;;;;;;4846003;29;20042;-66
2021/09/24 06:10:55;;;;;;;16.10;3.35;;;14.40;80.40;;;;;;4846612;29;20047;-66
2021/09/24 06:13:21;;;;;;;22.25;3.60;;;14.40;80.40;;;;;;4859973;29;20788;-66
2021/09/24 06:15:48;;;;;;;18.77;4.40;;;14.40;80.60;;;;;;4849944;29;20040;-66
2021/09/24 06:18:14;;;;;;;15.38;4.03;;;14.50;80.70;;;;;;4848903;29;20038;-66
2021/09/24 06:20:40;;;;;;;21.15;3.55;;;14.50;81.00;;;;;;4849795;29;20399;-66
2021/09/24 06:23:06;;;;;;;25.25;3.65;;;14.50;80.90;;;;;;4854899;29;20052;-66
2021/09/24 06:25:32;;;;;;;16.58;3.45;;;14.50;81.00;;;;;;4868190;29;20025;-66
2021/09/24 06:27:59;;;;;;;19.92;3.83;;;14.50;81.10;;;;;;4867846;29;20131;-64
2021/09/24 06:30:25;;;;;;;19.52;3.58;;;14.60;81.00;;;;;;4882404;29;20033;-65
2021/09/24 06:32:52;;;;;;;22.48;4.22;;;14.70;80.90;;;;;;4867320;29;20140;-73
2021/09/24 06:35:19;;;;;;;22.02;3.47;;;14.60;80.80;;;;;;4878120;29;20045;-68
2021/09/24 06:37:45;;;;;;;18.10;3.67;;;14.60;81.00;;;;;;4868006;29;20041;-66
2021/09/24 06:40:12;;;;;;;19.05;3.55;;;14.60;81.00;;;;;;4881566;29;20039;-67
2021/09/24 06:42:38;;;;;;;25.20;4.43;;;14.60;81.40;;;;;;4868320;29;20037;-67
2021/09/24 06:45:07;;;;;;;18.80;3.15;;;14.60;81.40;;;;;;4862884;29;20030;-67
2021/09/24 06:47:33;;;;;;;14.75;3.55;;;14.60;81.40;;;;;;4852586;29;20041;-67
2021/09/24 06:49:59;;;;;;;15.63;3.63;;;14.60;80.90;;;;;;4863602;29;20129;-67
2021/09/24 06:52:25;;;;;;;18.10;3.30;;;14.60;81.40;;;;;;4848954;29;20402;-67
2021/09/24 06:54:51;;;;;;;18.30;3.40;;;14.70;81.60;;;;;;4849030;29;20036;-68
2021/09/24 06:57:17;;;;;;;17.90;3.30;;;14.80;81.40;;;;;;4849293;29;20038;-68
2021/09/24 06:59:43;;;;;;;18.98;3.47;;;14.80;81.10;;;;;;4862925;29;20051;-67
2021/09/24 07:02:08;;;;;;;25.58;2.97;;;14.90;81.10;;;;;;4849514;29;20781;-67
2021/09/24 07:04:34;;;;;;;16.42;3.40;;;15.00;80.70;;;;;;4849430;29;20037;-67
2021/09/24 07:07:00;;;;;;;25.73;4.88;;;15.10;81.30;;;;;;4848024;29;20484;-67
2021/09/24 07:09:25;;;;;;;21.65;4.32;;;15.20;80.10;;;;;;4852052;29;20852;-67
2021/09/24 07:11:51;;;;;;;17.50;3.83;;;15.30;79.60;;;;;;4847928;29;20041;-67
2021/09/24 07:14:19;;;;;;;21.52;4.88;;;15.40;79.30;;;;;;4847858;29;20056;-67
2021/09/24 07:16:46;;;;;;;12.65;2.75;;;15.50;78.60;;;;;;4859211;29;20045;-67
2021/09/24 07:19:12;;;;;;;22.08;4.32;;;15.60;78.20;;;;;;4865553;29;20029;-66
2021/09/24 07:21:38;;;;;;;17.00;3.55;;;15.60;77.60;;;;;;4859238;29;20894;-67
2021/09/24 07:24:06;;;;;;;17.05;4.45;;;15.70;77.00;;;;;;4845739;29;20134;-67
2021/09/24 07:26:34;;;;;;;16.05;3.70;;;15.80;77.40;;;;;;4856308;29;20055;-67
2021/09/24 07:29:00;;;;;;;21.35;3.33;;;15.80;76.80;;;;;;4867464;29;20041;-68
2021/09/24 07:31:27;;;;;;;13.82;3.38;;;15.90;77.30;;;;;;4859659;29;20045;-67
2021/09/24 07:33:53;;;;;;;19.48;3.75;;;16.20;75.90;;;;;;4856486;29;20048;-67
2021/09/24 07:36:19;;;;;;;17.90;4.00;;;16.40;75.40;;;;;;4849397;29;20647;-67
2021/09/24 07:38:47;;;;;;;20.67;3.92;;;16.60;74.50;;;;;;4863542;29;20068;-67
2021/09/24 07:41:14;;;;;;;24.98;3.42;;;16.90;73.40;;;;;;4867338;29;20616;-66
2021/09/24 07:43:42;;;;;;;17.02;3.35;;;17.30;70.30;;;;;;4852246;29;20094;-67
2021/09/24 07:46:09;;;;;;;16.67;3.90;;;17.40;70.80;;;;;;4863876;29;20052;-66
2021/09/24 07:48:34;;;;;;;18.85;3.13;;;17.40;69.80;;;;;;4866399;29;20037;-66
2021/09/24 07:51:01;;;;;;;21.88;3.97;;;17.60;69.60;;;;;;4862843;29;20792;-66
2021/09/24 07:53:28;;;;;;;12.65;3.13;;;17.60;68.70;;;;;;4855334;29;20061;-67
2021/09/24 07:55:54;;;;;;;18.90;3.17;;;17.60;68.70;;;;;;4848277;29;20045;-67
2021/09/24 07:58:20;;;;;;;18.33;3.15;;;17.50;69.10;;;;;;4848577;29;20395;-66
2021/09/24 08:00:45;;;;;;;20.95;4.10;;;17.50;69.10;;;;;;4848145;29;20653;-67
2021/09/24 08:03:11;;;;;;;20.15;3.67;;;17.60;68.80;;;;;;4848944;29;20926;-67
2021/09/24 08:05:37;;;;;;;14.93;3.38;;;17.70;69.20;;;;;;4862599;29;20033;-67
2021/09/24 08:08:04;;;;;;;15.88;3.47;;;17.70;68.20;;;;;;4847499;29;20037;-67
2021/09/24 08:10:29;;;;;;;20.48;4.40;;;17.50;68.20;;;;;;4848203;29;20037;-67
2021/09/24 08:12:55;;;;;;;24.35;4.47;;;17.30;69.90;;;;;;4859546;29;20052;-67
2021/09/24 08:15:22;;;;;;;20.75;3.45;;;17.40;70.50;;;;;;4847617;29;20038;-67
2021/09/24 08:17:48;;;;;;;15.95;3.08;;;17.50;70.40;;;;;;4850408;29;20045;-67
2021/09/24 08:20:14;;;;;;;18.92;3.45;;;17.60;70.10;;;;;;4866578;29;20566;-66
2021/09/24 08:22:41;;;;;;;20.10;3.65;;;17.70;68.70;;;;;;4867304;29;20088;-67
2021/09/24 08:25:09;;;;;;;14.90;3.03;;;17.80;68.80;;;;;;4866711;29;20044;-66
2021/09/24 08:27:35;;;;;;;13.20;2.88;;;18.00;69.10;;;;;;4867089;29;20052;-67
2021/09/24 08:30:04;;;;;;;16.38;3.38;;;18.10;68.40;;;;;;4866045;29;20068;-66
2021/09/24 08:32:32;;;;;;;17.52;3.40;;;18.10;67.40;;;;;;4861636;29;20033;-66
2021/09/24 08:34:58;;;;;;;19.08;3.38;;;18.20;66.90;;;;;;4847827;29;20077;-66
2021/09/24 08:37:24;;;;;;;18.10;3.28;;;18.20;67.30;;;;;;4860182;29;20124;-66
2021/09/24 08:39:50;;;;;;;15.45;2.85;;;18.20;67.10;;;;;;4860848;29;20125;-65
2021/09/24 08:42:15;;;;;;;15.52;3.88;;;18.10;67.70;;;;;;4848041;29;20445;-68
2021/09/24 08:44:42;;;;;;;20.80;3.80;;;18.10;68.20;;;;;;4844768;29;20565;-67
2021/09/24 08:47:08;;;;;;;14.93;3.70;;;18.10;67.30;;;;;;4851313;29;20033;-67
2021/09/24 08:49:34;;;;;;;18.95;4.22;;;18.10;67.90;;;;;;4854732;29;20037;-68
2021/09/24 08:52:00;;;;;;;22.48;4.03;;;18.20;68.40;;;;;;4847582;29;20044;-70
2021/09/24 08:54:25;;;;;;;14.88;2.60;;;18.30;67.30;;;;;;4855225;29;20040;-69
2021/09/24 08:56:51;;;;;;;20.00;3.30;;;18.70;66.10;;;;;;4859466;29;20127;-68
2021/09/24 08:59:18;;;;;;;15.50;3.17;;;19.30;63.40;;;;;;4865551;29;20089;-65
2021/09/24 09:02:01;;;;;;;12.88;2.95;;;19.90;63.00;;;;;;4860776;29;20073;-66
2021/09/24 09:04:42;;;;;;;21.10;3.30;;;20.40;61.60;;;;;;4861125;29;20525;-68
2021/09/24 09:07:10;;;;;;;15.13;3.30;;;20.60;60.60;;;;;;4862571;29;20037;-67
2021/09/24 09:09:38;;;;;;;19.33;3.60;;;20.40;60.40;;;;;;4865248;29;20049;-68
2021/09/24 09:12:18;;;;;;;16.10;2.88;;;20.10;61.20;;;;;;4861040;29;20052;-67
2021/09/24 09:15:06;;;;;;;19.48;3.60;;;19.80;61.30;;;;;;4845738;29;20751;-67
2021/09/24 09:17:37;;;;;;;18.40;3.88;;;19.80;62.90;;;;;;4863275;29;20052;-67
2021/09/24 09:20:16;;;;;;;17.45;3.08;;;20.00;62.80;;;;;;4864839;29;20033;-67
2021/09/24 09:22:44;;;;;;;19.02;3.60;;;20.10;62.00;;;;;;4864972;29;20743;-67
2021/09/24 09:25:25;;;;;;;21.63;3.67;;;20.10;63.00;;;;;;4864966;29;20051;-67
2021/09/24 09:27:53;;;;;;;16.45;3.15;;;20.10;62.90;;;;;;4863089;29;20052;-68
2021/09/24 09:30:20;;;;;;;17.60;3.72;;;20.00;62.80;;;;;;4864974;29;20041;-67
2021/09/24 09:32:57;;;;;;;17.95;3.35;;;19.90;63.80;;;;;;4847074;29;20119;-71
2021/09/24 09:35:24;;;;;;;20.70;3.40;;;19.90;64.20;;;;;;4846619;29;20041;-68
2021/09/24 09:37:49;;;;;;;16.48;3.60;;;19.80;64.10;;;;;;4849591;29;20041;-67
2021/09/24 09:40:20;;;;;;;19.00;3.22;;;19.60;64.60;;;;;;4845775;29;20034;-68
2021/09/24 09:42:49;;;;;;;14.38;3.38;;;19.60;64.90;;;;;;4861569;29;20025;-68
2021/09/24 09:45:18;;;;;;;14.55;3.05;;;19.60;65.60;;;;;;4867808;29;20849;-69
2021/09/24 09:47:47;;;;;;;13.85;2.67;;;19.60;65.50;;;;;;4868955;29;20063;-69
2021/09/24 09:50:26;;;;;;;12.60;3.10;;;19.60;65.70;;;;;;4868458;29;20032;-69
2021/09/24 09:53:00;;;;;;;13.77;2.65;;;19.60;66.10;;;;;;4865163;29;20037;-67
2021/09/24 09:55:27;;;;;;;15.70;2.80;;;19.60;66.10;;;;;;4848809;29;20042;-65
2021/09/24 09:57:59;;;;;;;16.40;3.78;;;19.60;65.80;;;;;;4848892;29;20045;-68
2021/09/24 10:00:26;;;;;;;14.60;4.43;;;19.60;65.60;;;;;;4849821;29;20061;-68
2021/09/24 10:03:03;;;;;;;10.50;3.45;;;19.60;65.90;;;;;;4857207;29;20705;-68
2021/09/24 10:05:43;;;;;;;8.90;2.67;;;19.60;66.40;;;;;;4865770;29;20084;-68
2021/09/24 10:08:39;;;;;;;14.00;4.03;;;19.60;66.80;;;;;;4882331;29;20041;-68
2021/09/24 10:11:13;;;;;;;11.73;3.10;;;19.60;66.50;;;;;;4849829;29;20045;-68
2021/09/24 10:13:51;;;;;;;7.65;2.30;;;19.60;67.00;;;;;;4849422;29;20112;-68
2021/09/24 10:16:17;;;;;;;5.25;2.20;;;19.60;66.30;;;;;;4864992;29;20029;-67
2021/09/24 10:18:43;;;;;;;9.68;2.03;;;19.50;67.30;;;;;;4867770;29;20837;-68
2021/09/24 10:21:09;;;;;;;7.32;1.98;;;19.40;67.20;;;;;;4867280;29;20189;-67
2021/09/24 10:23:35;;;;;;;11.95;1.90;;;19.30;67.80;;;;;;4867751;29;20036;-68
2021/09/24 10:26:10;;;;;;;8.70;1.80;;;19.20;67.80;;;;;;4849129;29;20033;-68
2021/09/24 10:28:39;;;;;;;13.70;2.03;;;19.10;68.00;;;;;;4864754;29;20041;-68
2021/09/24 10:31:11;;;;;;;14.68;2.83;;;19.00;68.40;;;;;;4860451;29;20125;-68
2021/09/24 10:33:52;;;;;;;12.70;2.67;;;18.90;69.40;;;;;;4866988;29;20360;-68
2021/09/24 10:36:41;;;;;;;11.82;2.35;;;18.80;70.00;;;;;;4867028;29;20045;-68
2021/09/24 10:39:28;;;;;;;9.20;2.15;;;18.70;70.30;;;;;;4853591;29;20117;-68
2021/09/24 10:42:18;;;;;;;7.90;2.38;;;18.70;70.40;;;;;;4862493;29;20486;-67
2021/09/24 10:45:02;;;;;;;8.50;2.15;;;18.70;71.20;;;;;;4867560;29;20049;-69
2021/09/24 10:48:12;;;;;;;12.25;2.50;;;18.70;70.60;;;;;;4866067;29;20055;-68
2021/09/24 10:50:43;;;;;;;10.02;2.65;;;18.80;70.30;;;;;;4865915;29;20045;-68
2021/09/24 10:53:13;;;;;;;8.23;1.90;;;18.70;70.70;;;;;;4861041;29;20045;-68
2021/09/24 10:55:54;;;;;;;9.18;1.75;;;18.80;70.70;;;;;;4846695;29;20101;-68
2021/09/24 10:58:23;;;;;;;5.57;1.33;;;18.80;70.60;;;;;;4863090;29;20051;-68
2021/09/24 11:00:50;;;;;;;9.20;1.80;;;18.70;71.20;;;;;;4851033;29;20620;-68
2021/09/24 11:03:24;;;;;;;6.30;1.70;;;18.70;71.40;;;;;;4848461;29;20053;-68
2021/09/24 11:05:57;;;;;;;7.93;1.77;;;18.70;71.00;;;;;;4848859;29;20078;-68
2021/09/24 11:08:29;;;;;;;7.55;1.33;;;18.70;71.00;;;;;;4853469;29;20037;-68
2021/09/24 11:11:12;;;;;;;9.68;1.63;;;18.70;71.80;;;;;;4848072;29;20073;-68
2021/09/24 11:13:44;;;;;;;8.35;1.50;;;18.80;71.70;;;;;;4847908;29;20046;-68
2021/09/24 11:16:23;;;;;;;6.00;1.27;;;18.80;71.90;;;;;;4862246;29;20037;-67
2021/09/24 11:18:54;;;;;;;6.78;1.48;;;18.90;72.20;;;;;;4847110;29;20748;-68
2021/09/24 11:21:25;;;;;;;5.30;1.50;;;18.80;72.10;;;;;;4855385;29;20076;-68
2021/09/24 11:23:54;;;;;;;9.20;1.35;;;18.80;71.80;;;;;;4864352;29;20032;-68
2021/09/24 11:26:25;;;;;;;9.85;1.77;;;18.80;72.00;;;;;;4847998;29;20045;-69
2021/09/24 11:29:08;;;;;;;4.13;1.48;;;18.90;71.60;;;;;;4863780;29;20036;-69
2021/09/24 11:31:52;;;;;;;7.47;1.33;;;18.80;72.00;;;;;;4865768;29;20044;-69
2021/09/24 11:34:39;;;;;;;4.95;1.13;;;18.80;72.60;;;;;;4865932;29;20045;-69
2021/09/24 11:37:06;;;;;;;;;;;18.70;72.60;;;;;;4862063;29;20209;-67
2021/09/24 11:39:34;;;;;;;4.78;1.00;;;18.90;72.40;;;;;;4851744;29;19923;-68
2021/09/24 11:42:08;;;;;;;5.00;1.10;;;19.00;72.20;;;;;;4862951;29;20029;-67
2021/09/24 11:44:41;;;;;;;5.22;0.98;;;19.30;71.30;;;;;;4866810;29;20116;-68
2021/09/24 11:47:21;;;;;;;3.75;0.90;;;19.40;71.20;;;;;;4867572;29;20033;-68
2021/09/24 11:50:07;;;;;;;5.88;1.20;;;19.40;71.10;;;;;;4864717;29;20128;-68
2021/09/24 11:52:43;;;;;;;4.50;1.05;;;19.50;70.60;;;;;;4860661;29;20448;-69
2021/09/24 11:55:26;;;;;;;5.22;1.38;;;19.50;70.70;;;;;;4860446;29;20112;-68
2021/09/24 11:58:00;;;;;;;7.85;1.73;;;19.50;70.70;;;;;;4861405;29;20034;-68
2021/09/24 12:00:28;;;;;;;3.65;1.00;;;19.40;70.50;;;;;;4857224;29;20037;-68
2021/09/24 12:03:08;;;;;;;6.63;1.77;;;19.40;71.40;;;;;;4873620;29;20756;-67
2021/09/24 12:05:34;;;;;;;4.80;1.15;;;19.30;71.90;;;;;;4870180;29;20100;-68
2021/09/24 12:08:00;;;;;;;6.65;1.55;;;19.30;72.00;;;;;;4871781;29;20041;-67
2021/09/24 12:10:28;;;;;;;7.80;1.35;;;19.30;72.00;;;;;;4862851;29;20033;-67
2021/09/24 12:13:08;;;;;;;7.93;0.90;;;19.30;71.80;;;;;;4866214;29;20132;-71
2021/09/24 12:15:58;;;;;;;9.02;1.60;;;19.20;72.80;;;;;;4864909;29;20044;-67
2021/09/24 12:18:43;;;;;;;3.83;1.20;;;19.30;72.70;;;;;;4863400;29;20041;-66
2021/09/24 12:21:10;;;;;;;4.95;1.33;;;19.40;72.40;;;;;;4869980;29;20047;-67
2021/09/24 12:23:37;;;;;;;5.43;1.52;;;19.40;72.10;;;;;;4871821;29;20033;-67
2021/09/24 12:26:05;;;;;;;6.88;1.98;;;19.50;71.90;;;;;;4857486;29;20596;-67
2021/09/24 12:28:31;;;;;;;4.22;1.50;;;19.50;71.80;;;;;;4864681;29;20074;-67
2021/09/24 12:30:58;;;;;;;7.18;1.40;;;19.40;71.80;;;;;;4878125;29;20040;-66
2021/09/24 12:33:23;;;;;;;7.47;1.30;;;19.40;72.10;;;;;;4867631;29;20048;-67
2021/09/24 12:36:15;;;;;;;6.03;1.60;;;19.30;72.20;;;;;;4862527;29;20029;-67
2021/09/24 12:38:41;;;;;;;8.85;1.40;;;19.30;73.30;;;;;;4861226;29;20483;-67
2021/09/24 12:41:15;;;;;;;10.23;1.92;;;19.20;72.80;;;;;;4857532;29;20044;-69
2021/09/24 12:43:42;;;;;;;8.10;1.48;;;19.20;73.40;;;;;;4855661;29;20047;-66